createdAt,value
2022-08-29T00:01:47.758Z,4.95
2022-08-29T00:04:14.122Z,4.32
2022-08-29T00:06:40.658Z,4.38
2022-08-29T00:09:07.131Z,4.72
2022-08-29T00:11:33.672Z,4.05
2022-08-29T00:14:00.040Z,3.97
2022-08-29T00:16:26.449Z,3.97
2022-08-29T00:18:52.804Z,4.15
2022-08-29T00:21:19.102Z,3.70
2022-08-29T00:23:45.458Z,5.05
2022-08-29T00:26:11.762Z,3.70
2022-08-29T00:28:38.246Z,3.70
2022-08-29T00:31:04.569Z,3.95
2022-08-29T00:33:31.047Z,4.72
2022-08-29T00:35:57.388Z,5.85
2022-08-29T00:38:27.688Z,4.47
2022-08-29T00:40:54.771Z,3.67
2022-08-29T00:43:21.284Z,4.70
2022-08-29T00:45:47.658Z,3.35
2022-08-29T00:48:14.100Z,3.53
2022-08-29T00:50:40.519Z,3.83
2022-08-29T00:53:06.934Z,3.75
2022-08-29T00:55:33.454Z,4.95
2022-08-29T00:57:59.928Z,5.47
2022-08-29T01:00:26.426Z,3.55
2022-08-29T01:02:52.838Z,4.35
2022-08-29T01:05:19.189Z,3.67
2022-08-29T01:07:45.587Z,4.15
2022-08-29T01:10:13.385Z,3.13
2022-08-29T01:12:40.408Z,4.78
2022-08-29T01:15:06.881Z,3.90
2022-08-29T01:17:33.455Z,3.83
2022-08-29T01:19:59.852Z,4.40
2022-08-29T01:22:26.336Z,5.22
2022-08-29T01:24:52.953Z,5.25
2022-08-29T01:27:19.464Z,4.43
2022-08-29T01:29:45.928Z,5.85
2022-08-29T01:32:16.860Z,4.38
2022-08-29T01:34:43.526Z,3.83
2022-08-29T01:37:09.849Z,4.80
2022-08-29T01:39:36.174Z,3.85
2022-08-29T01:42:02.666Z,3.63
2022-08-29T01:44:28.991Z,4.53
2022-08-29T01:46:57.954Z,4.53
2022-08-29T01:49:28.314Z,4.65
2022-08-29T01:51:54.640Z,6.03
2022-08-29T01:54:20.962Z,4.20
2022-08-29T01:56:47.250Z,3.80
2022-08-29T01:59:13.683Z,3.83
2022-08-29T02:01:40.387Z,5.50
2022-08-29T02:04:06.819Z,3.90
2022-08-29T02:06:33.286Z,4.35
2022-08-29T02:08:59.607Z,4.90
2022-08-29T02:11:25.965Z,5.00
2022-08-29T02:13:52.276Z,4.05
2022-08-29T02:16:18.678Z,3.83
2022-08-29T02:18:44.991Z,4.05
2022-08-29T02:21:11.525Z,5.20
2022-08-29T02:23:37.803Z,4.53
2022-08-29T02:26:04.066Z,4.47
2022-08-29T02:28:30.411Z,5.70
2022-08-29T02:30:56.997Z,5.15
2022-08-29T02:33:23.390Z,4.95
2022-08-29T02:35:49.657Z,3.65
2022-08-29T02:38:16.345Z,5.03
2022-08-29T02:40:42.745Z,5.30
2022-08-29T02:43:09.041Z,4.90
2022-08-29T02:45:35.490Z,4.45
2022-08-29T02:48:01.813Z,4.30
2022-08-29T02:50:28.257Z,4.38
2022-08-29T02:52:54.662Z,4.38
2022-08-29T02:55:21.103Z,4.85
2022-08-29T02:57:47.448Z,4.53
2022-08-29T03:00:13.697Z,4.25
2022-08-29T03:02:40.041Z,3.88
2022-08-29T03:05:06.352Z,3.72
2022-08-29T03:07:32.660Z,5.60
2022-08-29T03:09:58.946Z,5.32
2022-08-29T03:12:25.325Z,4.07
2022-08-29T03:14:54.544Z,4.68
2022-08-29T03:17:20.899Z,4.47
2022-08-29T03:19:47.373Z,4.68
2022-08-29T03:22:13.681Z,4.55
2022-08-29T03:24:40.128Z,4.78
2022-08-29T03:27:06.405Z,5.38
2022-08-29T03:29:32.747Z,6.50
2022-08-29T03:31:59.237Z,4.40
2022-08-29T03:34:25.575Z,5.05
2022-08-29T03:36:52.004Z,4.65
2022-08-29T03:39:18.304Z,6.47
2022-08-29T03:41:44.606Z,5.80
2022-08-29T03:44:10.882Z,4.90
2022-08-29T03:46:37.512Z,4.88
2022-08-29T03:49:04.005Z,5.20
2022-08-29T03:51:30.399Z,5.35
2022-08-29T03:53:56.927Z,4.80
2022-08-29T03:56:23.273Z,5.78
2022-08-29T03:58:53.127Z,4.53
2022-08-29T04:01:19.949Z,6.43
2022-08-29T04:03:46.824Z,4.85
2022-08-29T04:06:13.294Z,4.10
2022-08-29T04:08:39.631Z,4.72
2022-08-29T04:11:05.952Z,5.15
2022-08-29T04:13:32.425Z,5.03
2022-08-29T04:15:58.774Z,4.68
2022-08-29T04:18:25.214Z,4.50
2022-08-29T04:20:51.517Z,5.20
2022-08-29T04:23:17.810Z,5.13
2022-08-29T04:25:44.276Z,4.50
2022-08-29T04:28:10.708Z,4.97
2022-08-29T04:30:37.107Z,4.57
2022-08-29T04:33:03.390Z,4.97
2022-08-29T04:35:29.741Z,5.88
2022-08-29T04:37:56.127Z,5.43
2022-08-29T04:40:22.506Z,5.00
2022-08-29T04:42:49.350Z,4.22
2022-08-29T04:45:15.662Z,5.18
2022-08-29T04:47:41.997Z,5.60
2022-08-29T04:50:08.290Z,4.70
2022-08-29T04:52:34.783Z,5.38
2022-08-29T04:55:01.254Z,5.25
2022-08-29T04:57:27.488Z,4.93
2022-08-29T04:59:54.017Z,5.45
2022-08-29T05:02:20.389Z,6.03
2022-08-29T05:04:46.780Z,4.25
2022-08-29T05:07:13.065Z,5.45
2022-08-29T05:09:39.520Z,5.10
2022-08-29T05:12:10.064Z,5.53
2022-08-29T05:14:36.637Z,4.95
2022-08-29T05:17:02.961Z,4.45
2022-08-29T05:19:29.268Z,5.57
2022-08-29T05:22:00.939Z,5.47
2022-08-29T05:24:27.247Z,5.90
2022-08-29T05:26:53.824Z,4.82
2022-08-29T05:29:20.119Z,4.35
2022-08-29T05:31:46.575Z,5.53
2022-08-29T05:34:34.718Z,6.15
2022-08-29T05:36:59.160Z,6.32
2022-08-29T05:39:25.450Z,5.13
2022-08-29T05:41:51.941Z,5.72
2022-08-29T05:44:18.244Z,7.90
2022-08-29T05:46:44.665Z,5.10
2022-08-29T05:49:11.009Z,6.30
2022-08-29T05:51:39.684Z,6.60
2022-08-29T05:54:06.278Z,6.75
2022-08-29T05:56:32.584Z,7.47
2022-08-29T05:58:58.924Z,8.73
2022-08-29T06:01:25.846Z,6.40
2022-08-29T06:03:52.410Z,8.60
2022-08-29T06:06:18.939Z,8.65
2022-08-29T06:08:45.596Z,6.43
2022-08-29T06:11:12.018Z,7.68
2022-08-29T06:13:38.362Z,7.25
2022-08-29T06:16:07.418Z,7.57
2022-08-29T06:18:35.975Z,7.13
2022-08-29T06:21:05.096Z,5.50
2022-08-29T06:23:31.452Z,5.38
2022-08-29T06:25:57.814Z,6.05
2022-08-29T06:28:24.283Z,6.28
2022-08-29T06:30:50.849Z,6.15
2022-08-29T06:33:18.761Z,7.53
2022-08-29T06:35:45.255Z,5.63
2022-08-29T06:38:14.089Z,6.22
2022-08-29T06:40:40.681Z,5.97
2022-08-29T06:43:07.131Z,5.43
2022-08-29T06:45:33.444Z,5.88
2022-08-29T06:47:59.752Z,5.20
2022-08-29T06:50:26.084Z,7.07
2022-08-29T06:52:52.601Z,6.55
2022-08-29T06:55:21.575Z,8.35
2022-08-29T06:57:50.714Z,5.75
2022-08-29T07:00:21.392Z,5.75
2022-08-29T07:02:52.463Z,6.32
2022-08-29T07:05:19.248Z,8.23
2022-08-29T07:07:47.683Z,5.55
2022-08-29T07:10:16.542Z,6.20
2022-08-29T07:12:46.365Z,7.22
2022-08-29T07:15:13.555Z,5.15
2022-08-29T07:17:40.094Z,5.97
2022-08-29T07:20:06.511Z,5.63
2022-08-29T07:22:32.845Z,7.20
2022-08-29T07:24:59.236Z,6.20
2022-08-29T07:27:25.801Z,5.68
2022-08-29T07:29:52.301Z,5.70
2022-08-29T07:32:21.665Z,6.25
2022-08-29T07:34:54.101Z,7.40
2022-08-29T07:37:22.353Z,5.60
2022-08-29T07:39:48.607Z,6.78
2022-08-29T07:42:14.859Z,6.70
2022-08-29T07:44:41.178Z,6.20
2022-08-29T07:47:07.465Z,5.60
2022-08-29T07:49:41.142Z,7.35
2022-08-29T07:52:09.427Z,5.80
2022-08-29T07:54:35.740Z,7.13
2022-08-29T07:57:02.038Z,6.60
2022-08-29T07:59:28.367Z,7.03
2022-08-29T08:01:54.722Z,8.18
2022-08-29T08:04:21.153Z,5.72
2022-08-29T08:06:50.589Z,8.40
2022-08-29T08:09:16.894Z,6.70
2022-08-29T08:11:43.190Z,7.35
2022-08-29T08:14:09.504Z,7.28
2022-08-29T08:16:36.032Z,7.15
2022-08-29T08:19:02.316Z,6.57
2022-08-29T08:21:28.559Z,6.20
2022-08-29T08:23:55.047Z,6.22
2022-08-29T08:26:21.305Z,7.13
2022-08-29T08:28:47.646Z,6.18
2022-08-29T08:31:14.413Z,5.70
2022-08-29T08:33:40.849Z,5.07
2022-08-29T08:36:07.171Z,5.80
2022-08-29T08:38:33.527Z,5.93
2022-08-29T08:40:59.816Z,5.53
2022-08-29T08:43:26.837Z,5.35
2022-08-29T08:45:53.345Z,5.55
2022-08-29T08:48:19.718Z,7.00
2022-08-29T08:50:46.018Z,5.85
2022-08-29T08:53:12.363Z,5.35
2022-08-29T08:55:38.664Z,5.90
2022-08-29T08:58:04.966Z,4.93
2022-08-29T09:00:31.267Z,6.82
2022-08-29T09:02:57.693Z,4.93
2022-08-29T09:05:24.019Z,6.57
2022-08-29T09:07:50.491Z,5.32
2022-08-29T09:10:17.211Z,6.00
2022-08-29T09:12:43.445Z,6.57
2022-08-29T09:15:13.846Z,6.30
2022-08-29T09:17:40.495Z,5.45
2022-08-29T09:20:08.718Z,6.13
2022-08-29T09:22:35.584Z,5.53
2022-08-29T09:25:02.000Z,6.93
2022-08-29T09:27:28.349Z,6.85
2022-08-29T09:29:55.471Z,5.18
2022-08-29T09:32:22.713Z,5.25
2022-08-29T09:37:35.654Z,5.60
2022-08-29T09:40:02.179Z,4.50
2022-08-29T09:42:28.502Z,5.45
2022-08-29T09:44:54.803Z,5.60
2022-08-29T09:47:21.082Z,5.32
2022-08-29T09:49:47.505Z,6.60
2022-08-29T09:52:13.979Z,4.53
2022-08-29T09:54:41.253Z,4.55
2022-08-29T09:57:07.847Z,6.18
2022-08-29T09:59:35.323Z,5.82
2022-08-29T10:02:01.905Z,6.05
2022-08-29T10:04:28.507Z,6.07
2022-08-29T10:06:54.804Z,6.70
2022-08-29T10:09:21.216Z,5.55
2022-08-29T10:11:47.477Z,6.03
2022-08-29T10:14:14.504Z,6.03
2022-08-29T10:16:41.094Z,5.30
2022-08-29T10:19:07.503Z,5.82
2022-08-29T10:21:33.737Z,4.47
2022-08-29T10:24:00.099Z,5.60
2022-08-29T10:26:26.601Z,5.72
2022-08-29T10:28:52.880Z,4.95
2022-08-29T10:31:19.240Z,6.43
2022-08-29T10:33:45.569Z,6.15
2022-08-29T10:36:12.001Z,7.53
2022-08-29T10:38:38.359Z,6.60
2022-08-29T10:41:04.895Z,6.10
2022-08-29T10:43:31.210Z,4.72
2022-08-29T10:45:57.506Z,6.25
2022-08-29T10:48:23.812Z,5.00
2022-08-29T10:50:50.100Z,6.05
2022-08-29T10:53:16.391Z,4.90
2022-08-29T10:55:42.896Z,6.18
2022-08-29T10:58:12.586Z,4.75
2022-08-29T11:00:39.283Z,4.65
2022-08-29T11:03:05.606Z,5.70
2022-08-29T11:05:31.871Z,5.57
2022-08-29T11:07:58.108Z,4.93
2022-08-29T11:10:24.459Z,5.40
2022-08-29T11:12:50.818Z,4.65
2022-08-29T11:15:17.154Z,5.18
2022-08-29T11:17:43.698Z,5.47
2022-08-29T11:20:10.566Z,4.80
2022-08-29T11:22:36.853Z,5.10
2022-08-29T11:25:03.285Z,4.57
2022-08-29T11:27:29.725Z,4.57
2022-08-29T11:29:56.199Z,7.20
2022-08-29T11:32:22.482Z,4.55
2022-08-29T11:34:48.794Z,6.05
2022-08-29T11:37:15.140Z,4.57
2022-08-29T11:39:41.523Z,4.78
2022-08-29T11:42:07.831Z,4.32
2022-08-29T11:44:34.383Z,4.50
2022-08-29T11:47:00.918Z,4.13
2022-08-29T11:49:27.424Z,4.68
2022-08-29T11:51:53.768Z,5.05
2022-08-29T11:54:20.181Z,5.82
2022-08-29T11:56:46.521Z,5.00
2022-08-29T11:59:12.894Z,4.82
2022-08-29T12:01:39.655Z,5.35
2022-08-29T12:04:06.111Z,4.40
2022-08-29T12:06:32.510Z,3.65
2022-08-29T12:09:02.844Z,5.38
2022-08-29T12:11:30.936Z,5.40
2022-08-29T12:13:57.268Z,4.38
2022-08-29T12:16:23.553Z,4.30
2022-08-29T12:18:49.859Z,5.97
2022-08-29T12:21:16.209Z,4.70
2022-08-29T12:23:42.480Z,6.32
2022-08-29T12:26:21.950Z,4.85
2022-08-29T12:28:49.051Z,4.60
2022-08-29T12:31:15.436Z,5.00
2022-08-29T12:33:41.973Z,4.95
2022-08-29T12:36:08.467Z,5.07
2022-08-29T12:38:38.781Z,5.30
2022-08-29T12:41:08.201Z,5.03
2022-08-29T12:43:34.492Z,3.92
2022-08-29T12:46:00.815Z,4.40
2022-08-29T12:48:27.131Z,5.78
2022-08-29T12:50:53.497Z,4.53
2022-08-29T12:53:19.809Z,4.05
2022-08-29T12:55:46.191Z,4.70
2022-08-29T12:58:12.551Z,5.22
2022-08-29T13:00:38.857Z,3.60
2022-08-29T13:03:09.515Z,4.03
2022-08-29T13:05:41.654Z,3.03
2022-08-29T13:08:12.467Z,5.65
2022-08-29T13:10:39.687Z,4.13
2022-08-29T13:13:05.934Z,4.53
2022-08-29T13:15:33.422Z,4.30
2022-08-29T13:18:00.048Z,3.25
2022-08-29T13:20:26.330Z,4.18
2022-08-29T13:22:52.727Z,4.10
2022-08-29T13:25:19.011Z,4.40
2022-08-29T13:27:45.400Z,4.03
2022-08-29T13:30:11.714Z,4.15
2022-08-29T13:32:38.028Z,4.13
2022-08-29T13:35:04.296Z,5.32
2022-08-29T13:37:30.664Z,4.82
2022-08-29T13:39:56.963Z,4.07
2022-08-29T13:42:25.452Z,4.88
2022-08-29T13:44:51.763Z,4.60
2022-08-29T13:47:18.210Z,4.18
2022-08-29T13:49:45.807Z,4.13
2022-08-29T13:52:14.565Z,2.83
2022-08-29T13:54:40.813Z,3.47
2022-08-29T13:57:08.016Z,2.78
2022-08-29T13:59:35.933Z,4.30
2022-08-29T14:02:10.684Z,3.88
2022-08-29T14:04:39.840Z,3.65
2022-08-29T14:07:07.092Z,4.50
2022-08-29T14:09:33.743Z,3.47
2022-08-29T14:12:00.166Z,3.80
2022-08-29T14:14:26.464Z,4.30
2022-08-29T14:16:52.775Z,4.05
2022-08-29T14:19:19.252Z,3.50
2022-08-29T14:21:45.619Z,3.45
2022-08-29T14:24:11.926Z,3.58
2022-08-29T14:26:38.236Z,4.03
2022-08-29T14:29:04.630Z,4.28
2022-08-29T14:31:30.961Z,3.45
2022-08-29T14:33:57.294Z,4.20
2022-08-29T14:36:25.613Z,3.25
2022-08-29T14:38:53.713Z,3.45
2022-08-29T14:41:20.034Z,3.20
2022-08-29T14:43:46.684Z,3.45
2022-08-29T14:46:12.944Z,3.63
2022-08-29T14:48:39.452Z,3.70
2022-08-29T14:51:06.809Z,3.63
2022-08-29T14:53:37.908Z,3.03
2022-08-29T14:56:44.825Z,4.18
2022-08-29T14:59:08.202Z,3.10
2022-08-29T15:01:34.520Z,3.25
2022-08-29T15:04:00.841Z,3.67
2022-08-29T15:06:27.154Z,4.38
2022-08-29T15:08:53.590Z,3.20
2022-08-29T15:11:19.841Z,3.00
2022-08-29T15:13:46.152Z,3.17
2022-08-29T15:16:12.574Z,2.92
2022-08-29T15:19:37.201Z,3.10
2022-08-29T15:21:25.222Z,4.38
2022-08-29T15:23:51.573Z,3.50
2022-08-29T15:26:17.821Z,3.28
2022-08-29T15:28:44.189Z,3.20
2022-08-29T15:31:10.538Z,3.25
2022-08-29T15:33:36.992Z,3.10
2022-08-29T15:36:03.222Z,3.45
2022-08-29T15:38:29.547Z,2.97
2022-08-29T15:40:55.829Z,3.20
2022-08-29T15:43:22.480Z,3.35
2022-08-29T15:45:48.737Z,3.05
2022-08-29T15:48:16.417Z,3.13
2022-08-29T15:50:43.170Z,2.50
2022-08-29T15:53:09.424Z,1.83
2022-08-29T15:55:35.634Z,2.55
2022-08-29T15:58:01.884Z,2.92
2022-08-29T16:00:30.326Z,2.78
2022-08-29T16:02:57.522Z,2.92
2022-08-29T16:05:23.866Z,2.28
2022-08-29T16:07:50.127Z,2.65
2022-08-29T16:10:16.424Z,2.22
2022-08-29T16:12:42.681Z,2.60
2022-08-29T16:15:09.985Z,3.15
2022-08-29T16:17:36.414Z,3.05
2022-08-29T16:20:02.691Z,3.28
2022-08-29T16:22:29.057Z,2.55
2022-08-29T16:24:55.283Z,2.72
2022-08-29T16:27:21.522Z,2.88
2022-08-29T16:29:47.748Z,2.65
2022-08-29T16:32:14.013Z,1.98
2022-08-29T16:34:40.350Z,2.67
2022-08-29T16:37:06.603Z,2.78
2022-08-29T16:39:33.024Z,2.60
2022-08-29T16:41:59.257Z,3.42
2022-08-29T16:44:25.569Z,2.33
2022-08-29T16:46:51.810Z,2.75
2022-08-29T16:49:18.040Z,1.67
2022-08-29T16:51:44.290Z,1.95
2022-08-29T16:54:10.521Z,2.10
2022-08-29T16:56:36.781Z,1.20
2022-08-29T16:59:03.008Z,1.63
2022-08-29T17:01:29.429Z,1.30
2022-08-29T17:03:55.709Z,1.70
2022-08-29T17:06:21.930Z,1.67
2022-08-29T17:08:48.189Z,1.20
2022-08-29T17:11:14.421Z,1.73
2022-08-29T17:13:40.690Z,1.58
2022-08-29T17:16:06.924Z,1.35
2022-08-29T17:18:33.164Z,1.83
2022-08-29T17:20:59.383Z,1.77
2022-08-29T17:23:25.661Z,1.25
2022-08-29T17:25:51.892Z,1.60
2022-08-29T17:28:27.653Z,1.73
2022-08-29T17:30:53.954Z,1.83
2022-08-29T17:33:20.255Z,1.42
2022-08-29T17:35:46.497Z,1.42
2022-08-29T17:38:12.812Z,1.60
2022-08-29T17:40:40.365Z,1.13
2022-08-29T17:43:08.580Z,1.92
2022-08-29T17:45:34.862Z,1.55
2022-08-29T17:48:01.116Z,1.27
2022-08-29T17:50:27.337Z,1.92
2022-08-29T17:52:53.563Z,1.30
2022-08-29T17:55:19.781Z,1.50
2022-08-29T17:57:46.013Z,1.63
2022-08-29T18:00:12.228Z,2.33
2022-08-29T18:02:38.568Z,2.10
2022-08-29T18:05:04.835Z,2.10
2022-08-29T18:07:31.321Z,1.70
2022-08-29T18:09:59.637Z,2.30
2022-08-29T18:12:25.909Z,1.80
2022-08-29T18:14:52.161Z,2.08
2022-08-29T18:17:18.424Z,2.00
2022-08-29T18:19:44.644Z,1.92
2022-08-29T18:22:10.903Z,1.92
2022-08-29T18:24:37.108Z,2.25
2022-08-29T18:27:03.353Z,1.77
2022-08-29T18:29:29.587Z,2.53
2022-08-29T18:31:55.821Z,2.20
2022-08-29T18:34:22.068Z,2.42
2022-08-29T18:36:48.294Z,2.88
2022-08-29T18:39:14.526Z,2.70
2022-08-29T18:41:40.852Z,2.65
2022-08-29T18:44:07.171Z,2.13
2022-08-29T18:46:33.498Z,2.85
2022-08-29T18:48:59.728Z,2.55
2022-08-29T18:51:26.076Z,2.63
2022-08-29T18:53:52.317Z,2.45
2022-08-29T18:56:18.647Z,2.25
2022-08-29T18:58:45.083Z,2.90
2022-08-29T19:01:11.525Z,2.78
2022-08-29T19:03:37.915Z,2.90
2022-08-29T19:06:04.196Z,3.33
2022-08-29T19:08:30.539Z,2.63
2022-08-29T19:10:56.889Z,2.67
2022-08-29T19:13:25.280Z,2.42
2022-08-29T19:15:51.801Z,3.30
2022-08-29T19:18:18.207Z,2.47
2022-08-29T19:20:44.686Z,2.03
2022-08-29T19:23:11.117Z,2.53
2022-08-29T19:25:37.636Z,3.13
2022-08-29T19:28:04.127Z,2.42
2022-08-29T19:30:30.445Z,2.22
2022-08-29T19:32:56.754Z,3.45
2022-08-29T19:35:23.210Z,3.65
2022-08-29T19:37:49.857Z,3.10
2022-08-29T19:40:16.269Z,2.90
2022-08-29T19:42:42.566Z,5.93
2022-08-29T19:45:09.045Z,3.72
2022-08-29T19:47:35.354Z,4.35
2022-08-29T19:50:01.942Z,3.92
2022-08-29T19:52:28.694Z,2.95
2022-08-29T19:54:55.281Z,4.22
2022-08-29T19:57:21.718Z,3.13
2022-08-29T19:59:48.738Z,3.58
2022-08-29T20:02:15.202Z,5.05
2022-08-29T20:04:41.616Z,3.90
2022-08-29T20:07:08.632Z,3.20
2022-08-29T20:09:34.918Z,3.53
2022-08-29T20:12:01.247Z,3.75
2022-08-29T20:14:27.542Z,3.30
2022-08-29T20:16:56.237Z,4.38
2022-08-29T20:19:22.559Z,4.15
2022-08-29T20:21:49.127Z,3.50
2022-08-29T20:24:15.758Z,2.72
2022-08-29T20:26:42.883Z,3.28
2022-08-29T20:29:09.176Z,2.53
2022-08-29T20:31:35.601Z,2.72
2022-08-29T20:34:02.018Z,2.10
2022-08-29T20:36:28.382Z,2.55
2022-08-29T20:38:54.734Z,2.60
2022-08-29T20:41:21.266Z,3.08
2022-08-29T20:43:47.771Z,1.98
2022-08-29T20:46:14.165Z,1.77
2022-08-29T20:48:40.525Z,2.40
2022-08-29T20:51:06.923Z,1.50
2022-08-29T20:53:33.579Z,1.73
2022-08-29T20:56:00.142Z,1.88
2022-08-29T20:58:26.573Z,1.77
2022-08-29T21:00:55.405Z,1.98
2022-08-29T21:03:21.894Z,2.05
2022-08-29T21:05:48.255Z,1.60
2022-08-29T21:08:14.583Z,1.88
2022-08-29T21:10:41.010Z,2.03
2022-08-29T21:13:07.308Z,2.00
2022-08-29T21:15:33.665Z,1.60
2022-08-29T21:17:59.960Z,2.17
2022-08-29T21:20:26.325Z,1.80
2022-08-29T21:22:52.633Z,1.60
2022-08-29T21:25:18.956Z,1.90
2022-08-29T21:27:45.228Z,1.85
2022-08-29T21:30:11.556Z,1.65
2022-08-29T21:32:38.072Z,1.33
2022-08-29T21:35:04.424Z,2.00
2022-08-29T21:37:30.830Z,2.05
2022-08-29T21:39:57.259Z,1.55
2022-08-29T21:42:23.601Z,1.50
2022-08-29T21:44:50.126Z,1.80
2022-08-29T21:47:17.968Z,1.85
2022-08-29T21:49:44.594Z,2.08
2022-08-29T21:52:10.839Z,2.00
2022-08-29T21:54:37.215Z,1.58
2022-08-29T21:57:03.497Z,1.90
2022-08-29T21:59:29.760Z,2.38
2022-08-29T22:01:56.229Z,1.83
2022-08-29T22:04:28.306Z,2.17
2022-08-29T22:06:55.520Z,2.85
2022-08-29T22:09:22.342Z,1.98
2022-08-29T22:11:48.583Z,2.97
2022-08-29T22:14:14.836Z,1.85
2022-08-29T22:16:41.089Z,2.22
2022-08-29T22:19:07.341Z,3.08
2022-08-29T22:21:33.685Z,2.58
2022-08-29T22:23:59.924Z,1.92
2022-08-29T22:26:26.154Z,2.15
2022-08-29T22:28:52.378Z,1.92
2022-08-29T22:31:18.726Z,1.58
2022-08-29T22:33:45.048Z,2.65
2022-08-29T22:36:11.284Z,2.63
2022-08-29T22:38:37.529Z,2.15
2022-08-29T22:41:03.781Z,1.70
2022-08-29T22:43:30.008Z,2.63
2022-08-29T22:45:56.264Z,1.88
2022-08-29T22:48:22.483Z,3.17
2022-08-29T22:50:57.930Z,1.73
2022-08-29T22:53:24.807Z,1.95
2022-08-29T22:55:51.221Z,2.08
2022-08-29T22:58:17.467Z,1.67
2022-08-29T23:00:43.702Z,2.00
2022-08-29T23:03:10.002Z,2.17
2022-08-29T23:05:36.327Z,2.10
2022-08-29T23:08:02.565Z,2.30
2022-08-29T23:10:28.875Z,2.03
2022-08-29T23:12:55.342Z,2.65
2022-08-29T23:15:21.590Z,2.65
2022-08-29T23:17:47.822Z,2.20
2022-08-29T23:20:14.073Z,2.45
2022-08-29T23:22:42.851Z,3.35
2022-08-29T23:25:09.433Z,2.13
2022-08-29T23:27:35.674Z,2.53
2022-08-29T23:30:01.925Z,2.13
2022-08-29T23:32:28.157Z,2.95
2022-08-29T23:34:54.384Z,2.88
2022-08-29T23:37:20.691Z,2.92
2022-08-29T23:39:47.284Z,2.70
2022-08-29T23:42:13.509Z,2.72
2022-08-29T23:44:39.754Z,2.65
2022-08-29T23:47:05.967Z,2.35
2022-08-29T23:49:34.852Z,2.42
2022-08-29T23:52:01.109Z,3.08
2022-08-29T23:54:27.364Z,2.28
2022-08-29T23:56:53.616Z,1.85
2022-08-29T23:59:19.879Z,2.33
